createdAt,value
2023-02-14T00:02:54.548Z,2.87
2023-02-14T00:07:57.421Z,2.81
2023-02-14T00:13:01.157Z,2.75
2023-02-14T00:18:10.898Z,2.87
2023-02-14T00:23:16.882Z,2.78
2023-02-14T00:28:17.723Z,2.71
2023-02-14T00:33:20.315Z,2.68
2023-02-14T00:38:18.128Z,2.75
2023-02-14T00:43:52.196Z,2.74
2023-02-14T00:49:12.657Z,2.63
2023-02-14T00:54:16.534Z,2.65
2023-02-14T00:59:27.148Z,2.66
2023-02-14T01:04:52.879Z,2.58
2023-02-14T01:10:18.875Z,2.57
2023-02-14T01:15:29.738Z,2.37
2023-02-14T01:20:27.497Z,2.19
2023-02-14T01:25:32.240Z,2.18
2023-02-14T01:30:39.952Z,2.14
2023-02-14T01:35:42.576Z,2.17
2023-02-14T01:40:44.127Z,2.08
2023-02-14T01:45:43.415Z,2.06
2023-02-14T01:50:45.749Z,2.07
2023-02-14T01:55:48.513Z,1.95
2023-02-14T02:01:00.510Z,1.89
2023-02-14T02:06:09.151Z,1.65
2023-02-14T02:11:07.181Z,1.75
2023-02-14T02:16:28.171Z,1.46
2023-02-14T02:21:30.164Z,1.69
2023-02-14T02:26:30.560Z,1.89
2023-02-14T02:31:44.074Z,1.90
2023-02-14T02:37:03.881Z,1.79
2023-02-14T02:42:14.498Z,1.67
2023-02-14T02:47:26.206Z,1.66
2023-02-14T02:53:05.866Z,1.72
2023-02-14T02:58:08.558Z,1.61
2023-02-14T03:03:29.866Z,1.73
2023-02-14T03:08:30.356Z,1.79
2023-02-14T03:13:32.264Z,1.85
2023-02-14T03:18:52.670Z,1.42
2023-02-14T03:23:55.141Z,1.84
2023-02-14T03:29:00.669Z,1.83
2023-02-14T03:34:08.380Z,1.68
2023-02-14T03:39:07.842Z,1.60
2023-02-14T03:44:09.695Z,1.58
2023-02-14T03:49:12.776Z,1.60
2023-02-14T03:54:11.347Z,1.56
2023-02-14T03:59:12.751Z,1.55
2023-02-14T04:04:11.903Z,1.57
2023-02-14T04:09:14.012Z,1.55
2023-02-14T04:19:33.030Z,1.32
2023-02-14T04:24:34.270Z,1.23
2023-02-14T04:29:33.679Z,1.19
2023-02-14T04:34:34.225Z,0.96
2023-02-14T04:39:35.955Z,0.89
2023-02-14T04:44:35.913Z,1.05
2023-02-14T04:49:35.542Z,1.16
2023-02-14T04:54:39.775Z,1.07
2023-02-14T04:59:43.716Z,1.13
2023-02-14T05:04:42.194Z,1.02
2023-02-14T05:09:44.154Z,0.94
2023-02-14T05:14:43.135Z,1.07
2023-02-14T05:19:44.163Z,1.08
2023-02-14T05:24:46.115Z,1.10
2023-02-14T05:29:44.609Z,1.07
2023-02-14T05:34:46.582Z,0.95
2023-02-14T05:39:48.604Z,0.88
2023-02-14T05:44:47.135Z,0.92
2023-02-14T05:49:49.355Z,0.89
2023-02-14T05:54:58.301Z,0.92
2023-02-14T06:00:00.957Z,0.93
2023-02-14T06:05:00.319Z,1.03
2023-02-14T06:09:59.777Z,1.04
2023-02-14T06:15:00.130Z,1.03
2023-02-14T06:20:02.717Z,1.01
2023-02-14T06:25:01.733Z,1.13
2023-02-14T06:30:02.862Z,1.22
2023-02-14T06:35:07.505Z,1.27
2023-02-14T06:40:06.521Z,1.32
2023-02-14T06:45:05.280Z,1.40
2023-02-14T06:50:08.205Z,1.41
2023-02-14T06:55:17.147Z,1.39
2023-02-14T07:00:19.339Z,1.44
2023-02-14T07:05:22.272Z,1.59
2023-02-14T07:10:25.317Z,1.60
2023-02-14T07:15:24.737Z,1.70
2023-02-14T07:20:23.243Z,1.80
2023-02-14T07:25:25.995Z,1.86
2023-02-14T07:30:27.583Z,1.84
2023-02-14T07:35:29.568Z,1.85
2023-02-14T07:40:30.841Z,1.98
2023-02-14T07:45:32.621Z,2.03
2023-02-14T07:50:35.725Z,2.23
2023-02-14T07:55:37.433Z,2.18
2023-02-14T08:00:38.349Z,2.25
2023-02-14T08:05:40.265Z,2.31
2023-02-14T08:10:39.190Z,2.52
2023-02-14T08:16:01.286Z,2.65
2023-02-14T08:21:00.669Z,2.94
2023-02-14T08:26:03.673Z,3.04
2023-02-14T08:31:03.975Z,3.20
2023-02-14T08:36:05.460Z,3.23
2023-02-14T08:41:08.892Z,3.50
2023-02-14T08:46:13.903Z,3.61
2023-02-14T08:51:17.038Z,3.63
2023-02-14T08:56:19.135Z,3.84
2023-02-14T09:01:21.239Z,3.96
2023-02-14T09:06:26.506Z,4.21
2023-02-14T09:11:35.050Z,4.40
2023-02-14T09:16:33.214Z,4.57
2023-02-14T09:21:37.418Z,4.68
2023-02-14T09:26:39.116Z,4.84
2023-02-14T09:31:38.381Z,5.09
2023-02-14T09:36:58.056Z,5.16
2023-02-14T09:42:00.707Z,5.27
2023-02-14T09:47:10.847Z,5.32
2023-02-14T09:52:15.733Z,5.47
2023-02-14T09:57:17.023Z,5.58
2023-02-14T10:02:42.870Z,5.64
2023-02-14T10:07:44.097Z,5.93
2023-02-14T10:12:44.315Z,5.96
2023-02-14T10:17:47.634Z,6.06
2023-02-14T10:22:48.847Z,6.08
2023-02-14T10:27:50.798Z,6.24
2023-02-14T10:32:52.909Z,6.36
2023-02-14T10:37:51.335Z,6.45
2023-02-14T10:43:04.893Z,6.51
2023-02-14T10:48:08.503Z,6.74
2023-02-14T10:53:17.231Z,6.85
2023-02-14T10:58:18.329Z,7.05
2023-02-14T11:03:16.836Z,7.13
2023-02-14T11:08:19.955Z,7.17
2023-02-14T11:13:30.936Z,7.22
2023-02-14T11:18:36.212Z,7.19
2023-02-14T11:23:36.599Z,7.36
2023-02-14T11:28:36.814Z,7.54
2023-02-14T11:33:39.236Z,7.53
2023-02-14T11:38:40.151Z,7.55
2023-02-14T11:43:42.724Z,7.59
2023-02-14T11:48:42.038Z,7.71
2023-02-14T11:53:57.081Z,7.85
2023-02-14T11:58:58.629Z,7.91
2023-02-14T12:03:58.249Z,8.04
2023-02-14T12:09:21.437Z,8.03
2023-02-14T12:14:22.342Z,8.12
2023-02-14T12:19:43.387Z,8.19
2023-02-14T12:24:56.241Z,8.34
2023-02-14T12:30:05.569Z,8.27
2023-02-14T12:35:20.081Z,8.33
2023-02-14T12:40:29.016Z,8.39
2023-02-14T12:45:31.864Z,8.36
2023-02-14T12:51:04.023Z,8.35
2023-02-14T12:56:24.156Z,8.63
2023-02-14T13:01:44.181Z,8.57
2023-02-14T13:06:45.175Z,8.55
2023-02-14T13:11:53.847Z,8.58
2023-02-14T13:16:55.030Z,8.58
2023-02-14T13:21:59.706Z,8.69
2023-02-14T13:27:04.308Z,8.68
2023-02-14T13:32:07.499Z,8.63
2023-02-14T13:37:10.828Z,8.84
2023-02-14T13:42:12.457Z,8.93
2023-02-14T13:47:17.302Z,8.88
2023-02-14T13:52:18.324Z,8.86
2023-02-14T13:57:41.841Z,8.89
2023-02-14T14:02:45.546Z,9.01
2023-02-14T14:07:47.240Z,9.06
2023-02-14T14:12:46.267Z,9.28
2023-02-14T14:17:49.853Z,9.25
2023-02-14T14:22:52.324Z,9.21
2023-02-14T14:27:54.175Z,9.30
2023-02-14T14:32:53.554Z,9.24
2023-02-14T14:37:58.022Z,9.30
2023-02-14T14:43:00.966Z,9.34
2023-02-14T14:47:59.770Z,9.30
2023-02-14T14:53:15.014Z,9.35
2023-02-14T14:58:39.193Z,9.18
2023-02-14T15:03:42.328Z,9.16
2023-02-14T15:08:43.540Z,8.88
2023-02-14T15:13:57.824Z,8.79
2023-02-14T15:19:07.507Z,8.69
2023-02-14T15:24:06.973Z,8.42
2023-02-14T15:29:08.755Z,8.25
2023-02-14T15:34:10.782Z,8.05
2023-02-14T15:39:13.804Z,7.93
2023-02-14T15:44:23.858Z,7.74
2023-02-14T15:49:25.785Z,7.54
2023-02-14T15:54:29.517Z,7.35
2023-02-14T15:59:35.760Z,7.21
2023-02-14T16:04:45.806Z,7.07
2023-02-14T16:10:00.308Z,6.97
2023-02-14T16:15:23.164Z,6.85
2023-02-14T16:20:36.689Z,6.69
2023-02-14T16:25:43.220Z,6.63
2023-02-14T16:30:45.155Z,6.54
2023-02-14T16:35:46.153Z,6.60
2023-02-14T16:40:46.450Z,6.45
2023-02-14T16:45:46.107Z,6.27
2023-02-14T16:50:45.593Z,6.23
2023-02-14T16:55:44.384Z,6.11
2023-02-14T17:00:42.936Z,6.06
2023-02-14T17:05:41.931Z,6.01
2023-02-14T17:10:43.872Z,6.04
2023-02-14T17:15:42.983Z,5.89
2023-02-14T17:20:42.107Z,5.87
2023-02-14T17:25:47.225Z,5.97
2023-02-14T17:30:50.763Z,5.88
2023-02-14T17:35:55.759Z,5.90
2023-02-14T17:41:05.353Z,5.79
2023-02-14T17:46:32.292Z,5.70
2023-02-14T17:51:41.941Z,5.79
2023-02-14T18:03:09.766Z,5.76
2023-02-14T18:08:12.928Z,5.64
2023-02-14T18:13:25.965Z,5.61
2023-02-14T18:24:20.155Z,5.48
2023-02-14T18:29:23.643Z,5.33
2023-02-14T18:39:43.069Z,5.47
2023-02-14T18:44:47.437Z,5.46
2023-02-14T18:49:50.742Z,5.31
2023-02-14T18:54:50.148Z,5.28
2023-02-14T18:59:49.887Z,5.04
2023-02-14T19:05:02.675Z,4.79
2023-02-14T19:10:28.797Z,4.67
2023-02-14T19:15:32.243Z,4.74
2023-02-14T19:20:33.753Z,4.76
2023-02-14T19:25:37.428Z,4.57
2023-02-14T19:30:46.327Z,4.52
2023-02-14T19:36:01.078Z,4.52
2023-02-14T19:41:03.669Z,4.65
2023-02-14T19:46:06.483Z,4.69
2023-02-14T19:57:00.492Z,4.39
2023-02-14T20:02:20.227Z,4.23
2023-02-14T20:07:30.956Z,4.28
2023-02-14T20:12:36.857Z,4.25
2023-02-14T20:17:54.045Z,4.30
2023-02-14T20:23:11.001Z,4.24
2023-02-14T20:29:00.496Z,4.23
2023-02-14T20:34:11.927Z,4.14
2023-02-14T20:39:15.743Z,4.05
2023-02-14T20:44:28.845Z,4.11
2023-02-14T20:49:33.176Z,3.94
2023-02-14T20:54:39.541Z,3.89
2023-02-14T20:59:44.781Z,3.73
2023-02-14T21:04:48.825Z,3.70
2023-02-14T21:09:56.178Z,3.71
2023-02-14T21:14:54.463Z,3.58
2023-02-14T21:19:53.117Z,3.63
2023-02-14T21:24:53.932Z,3.59
2023-02-14T21:29:56.987Z,3.50
2023-02-14T21:34:59.606Z,3.43
2023-02-14T21:40:02.036Z,3.35
2023-02-14T21:45:24.970Z,3.28
2023-02-14T21:50:31.960Z,3.34
2023-02-14T21:55:44.454Z,3.19
2023-02-14T22:00:56.070Z,3.16
2023-02-14T22:06:10.160Z,3.22
2023-02-14T22:11:11.185Z,3.19
2023-02-14T22:16:14.030Z,2.94
2023-02-14T22:21:15.162Z,2.96
2023-02-14T22:26:17.747Z,2.84
2023-02-14T22:31:16.176Z,2.73
2023-02-14T22:36:17.062Z,2.72
2023-02-14T22:41:19.023Z,2.64
2023-02-14T22:46:22.002Z,2.65
2023-02-14T22:51:25.788Z,2.67
2023-02-14T22:56:27.252Z,2.60
2023-02-14T23:01:37.794Z,2.51
2023-02-14T23:06:44.749Z,2.46
2023-02-14T23:11:44.888Z,2.32
2023-02-14T23:17:06.451Z,2.29
2023-02-14T23:22:08.083Z,2.22
2023-02-14T23:27:15.763Z,2.20
2023-02-14T23:32:15.771Z,2.24
2023-02-14T23:37:14.720Z,2.32
2023-02-14T23:42:21.779Z,2.27
2023-02-14T23:47:24.635Z,2.28
2023-02-14T23:52:26.426Z,2.28
2023-02-14T23:57:25.583Z,2.19
